TimePDT,TemperatureF,Dew PointF,Humidity,Sea Level PressureIn,VisibilityMPH,Wind Direction,Wind SpeedMPH,Gust SpeedMPH,PrecipitationIn,Events,Conditions,WindDirDegrees,DateUTC
12:44 AM,54.0,52.0,93,29.90,10.0,West,3.5,-,N/A,,Scattered Clouds,280,2013-08-10 07:44:00
12:53 AM,54.0,52.0,93,29.90,10.0,West,3.5,-,N/A,,Scattered Clouds,280,2013-08-10 07:53:00
1:32 AM,54.0,53.1,97,29.92,10.0,Calm,Calm,-,N/A,,Mostly Cloudy,0,2013-08-10 08:32:00
1:53 AM,54.0,52.0,93,29.94,10.0,Calm,Calm,-,N/A,,Overcast,0,2013-08-10 08:53:00
2:27 AM,53.1,51.1,93,29.94,10.0,NW,3.5,-,N/A,,Scattered Clouds,310,2013-08-10 09:27:00
2:53 AM,54.0,52.0,93,29.95,10.0,WSW,5.8,-,N/A,,Scattered Clouds,250,2013-08-10 09:53:00
3:03 AM,54.0,52.0,93,29.95,10.0,West,3.5,-,N/A,,Mostly Cloudy,270,2013-08-10 10:03:00
3:18 AM,54.0,52.0,93,29.96,10.0,West,6.9,-,N/A,,Overcast,280,2013-08-10 10:18:00
3:25 AM,54.0,52.0,93,29.95,10.0,WNW,6.9,-,N/A,,Overcast,290,2013-08-10 10:25:00
3:53 AM,54.0,52.0,93,29.93,10.0,West,11.5,-,N/A,,Overcast,270,2013-08-10 10:53:00
4:53 AM,54.0,53.1,97,29.92,8.0,WNW,13.8,-,0.01,,Overcast,290,2013-08-10 11:53:00
5:39 AM,54.0,52.0,93,29.94,10.0,Calm,Calm,-,0.00,,Overcast,0,2013-08-10 12:39:00
5:53 AM,55.0,53.1,93,29.95,10.0,WNW,5.8,-,0.00,,Overcast,300,2013-08-10 12:53:00
6:41 AM,55.0,53.1,93,29.94,10.0,West,6.9,-,N/A,,Scattered Clouds,260,2013-08-10 13:41:00
6:53 AM,55.0,54.0,96,29.94,10.0,NNW,5.8,-,N/A,,Partly Cloudy,330,2013-08-10 13:53:00
7:18 AM,55.0,53.1,93,29.97,10.0,NW,8.1,-,N/A,,Scattered Clouds,320,2013-08-10 14:18:00
7:27 AM,54.0,53.1,97,29.99,10.0,NW,6.9,-,N/A,,Mostly Cloudy,310,2013-08-10 14:27:00
7:53 AM,55.0,53.1,93,30.01,10.0,West,3.5,-,N/A,,Overcast,280,2013-08-10 14:53:00
8:22 AM,57.0,54.0,89,30.00,10.0,Calm,Calm,-,N/A,,Scattered Clouds,0,2013-08-10 15:22:00
8:53 AM,57.0,54.0,89,29.98,10.0,West,8.1,-,N/A,,Clear,260,2013-08-10 15:53:00
9:53 AM,60.1,55.9,86,29.98,10.0,NW,4.6,-,N/A,,Clear,320,2013-08-10 16:53:00
10:53 AM,57.0,54.0,89,30.00,10.0,NNW,3.5,-,N/A,,Scattered Clouds,330,2013-08-10 17:53:00
11:53 AM,62.1,55.0,78,30.00,10.0,Calm,Calm,-,N/A,,Clear,0,2013-08-10 18:53:00
12:53 PM,64.0,55.0,73,30.00,10.0,NNW,6.9,-,N/A,,Clear,340,2013-08-10 19:53:00
1:53 PM,64.9,55.0,70,30.01,10.0,NW,9.2,-,N/A,,Clear,320,2013-08-10 20:53:00
2:53 PM,66.0,55.9,70,30.01,10.0,NW,11.5,-,N/A,,Clear,320,2013-08-10 21:53:00
3:53 PM,64.9,55.9,73,30.00,10.0,NNW,9.2,-,N/A,,Clear,330,2013-08-10 22:53:00
4:53 PM,64.0,55.0,73,29.99,10.0,WNW,15.0,-,N/A,,Clear,300,2013-08-10 23:53:00
5:53 PM,63.0,55.0,75,29.99,10.0,NW,11.5,-,N/A,,Clear,310,2013-08-11 00:53:00
6:53 PM,63.0,55.0,75,29.98,10.0,WNW,12.7,-,N/A,,Clear,300,2013-08-11 01:53:00
7:53 PM,59.0,54.0,83,29.99,10.0,WNW,13.8,-,N/A,,Clear,290,2013-08-11 02:53:00
8:53 PM,57.0,53.1,87,30.02,10.0,West,10.4,-,N/A,,Clear,280,2013-08-11 03:53:00
9:16 PM,57.0,53.1,87,30.02,10.0,WNW,9.2,-,N/A,,Partly Cloudy,290,2013-08-11 04:16:00
9:53 PM,55.9,53.1,90,30.02,10.0,WNW,12.7,-,N/A,,Clear,300,2013-08-11 04:53:00
10:53 PM,55.9,53.1,90,30.03,10.0,WNW,12.7,-,N/A,,Clear,290,2013-08-11 05:53:00
11:53 PM,55.9,52.0,87,30.02,10.0,West,13.8,-,N/A,,Clear,280,2013-08-11 06:53:00